sensor_id;sensor_type;location;lat;lon;timestamp;pressure;altitude;pressure_sealevel;temperature;humidity
70254;BME280;57649;42.968;1.608;2023-04-02T00:07:43;97433.88;;;6.56;95.94
70254;BME280;57649;42.968;1.608;2023-04-02T00:15:35;97420.97;;;6.51;95.59
70254;BME280;57649;42.968;1.608;2023-04-02T00:18:02;97411.34;;;6.31;94.10
70254;BME280;57649;42.968;1.608;2023-04-02T00:20:30;97435.28;;;6.31;93.97
70254;BME280;57649;42.968;1.608;2023-04-02T00:22:57;97437.25;;;6.19;94.47
70254;BME280;57649;42.968;1.608;2023-04-02T00:25:25;97443.38;;;6.29;94.52
70254;BME280;57649;42.968;1.608;2023-04-02T00:27:52;97447.16;;;6.17;94.12
70254;BME280;57649;42.968;1.608;2023-04-02T00:30:18;97447.16;;;6.17;93.33
70254;BME280;57649;42.968;1.608;2023-04-02T00:32:44;97458.91;;;6.24;94.36
70254;BME280;57649;42.968;1.608;2023-04-02T00:35:23;97471.94;;;6.18;97.34
70254;BME280;57649;42.968;1.608;2023-04-02T00:37:49;97453.97;;;5.90;96.69
70254;BME280;57649;42.968;1.608;2023-04-02T00:40:21;97460.13;;;5.91;98.47
70254;BME280;57649;42.968;1.608;2023-04-02T00:42:48;97457.91;;;5.96;97.39
70254;BME280;57649;42.968;1.608;2023-04-02T00:47:50;97455.69;;;6.01;97.61
70254;BME280;57649;42.968;1.608;2023-04-02T00:50:34;97477.34;;;5.96;99.22
70254;BME280;57649;42.968;1.608;2023-04-02T00:53:08;97471.78;;;6.00;99.14
70254;BME280;57649;42.968;1.608;2023-04-02T00:55:38;97470.78;;;6.01;97.12
70254;BME280;57649;42.968;1.608;2023-04-02T00:58:16;97461.28;;;6.08;97.04
70254;BME280;57649;42.968;1.608;2023-04-02T01:00:48;97463.84;;;6.19;95.99
70254;BME280;57649;42.968;1.608;2023-04-02T01:05:44;97473.59;;;6.19;96.12
70254;BME280;57649;42.968;1.608;2023-04-02T01:08:24;97459.06;;;6.13;96.67
70254;BME280;57649;42.968;1.608;2023-04-02T01:14:11;97465.06;;;6.15;94.04
70254;BME280;57649;42.968;1.608;2023-04-02T01:16:54;97483.13;;;6.21;94.79
70254;BME280;57649;42.968;1.608;2023-04-02T01:22:21;97476.69;;;6.14;95.07
70254;BME280;57649;42.968;1.608;2023-04-02T01:24:49;97462.13;;;6.28;96.81
70254;BME280;57649;42.968;1.608;2023-04-02T01:32:31;97482.31;;;6.30;95.48
70254;BME280;57649;42.968;1.608;2023-04-02T01:37:47;97479.47;;;6.22;92.17
70254;BME280;57649;42.968;1.608;2023-04-02T01:40:29;97482.84;;;6.24;93.60
70254;BME280;57649;42.968;1.608;2023-04-02T01:45:30;97468.59;;;6.25;95.00
70254;BME280;57649;42.968;1.608;2023-04-02T01:53:42;97473.34;;;6.41;94.87
70254;BME280;57649;42.968;1.608;2023-04-02T01:58:44;97480.47;;;6.60;95.74
70254;BME280;57649;42.968;1.608;2023-04-02T02:01:14;97490.41;;;6.68;95.85
70254;BME280;57649;42.968;1.608;2023-04-02T02:03:42;97488.03;;;6.45;92.32
70254;BME280;57649;42.968;1.608;2023-04-02T02:06:14;97485.38;;;6.55;96.10
70254;BME280;57649;42.968;1.608;2023-04-02T02:08:50;97470.41;;;6.54;92.84
70254;BME280;57649;42.968;1.608;2023-04-02T02:11:21;97468.88;;;6.42;92.07
70254;BME280;57649;42.968;1.608;2023-04-02T02:16:23;97466.06;;;6.53;91.76
70254;BME280;57649;42.968;1.608;2023-04-02T02:18:54;97472.50;;;6.60;93.17
70254;BME280;57649;42.968;1.608;2023-04-02T02:21:42;97477.25;;;6.57;92.79
70254;BME280;57649;42.968;1.608;2023-04-02T02:29:27;97458.78;;;6.35;96.44
70254;BME280;57649;42.968;1.608;2023-04-02T02:31:55;97483.69;;;6.64;93.84
70254;BME280;57649;42.968;1.608;2023-04-02T02:37:03;97474.84;;;6.73;91.16
70254;BME280;57649;42.968;1.608;2023-04-02T02:39:37;97483.41;;;6.77;92.41
70254;BME280;57649;42.968;1.608;2023-04-02T02:44:48;97480.59;;;6.78;90.47
70254;BME280;57649;42.968;1.608;2023-04-02T02:49:59;97489.81;;;6.84;89.52
70254;BME280;57649;42.968;1.608;2023-04-02T02:52:29;97479.63;;;6.60;89.96
70254;BME280;57649;42.968;1.608;2023-04-02T02:55:10;97494.34;;;6.64;91.96
70254;BME280;57649;42.968;1.608;2023-04-02T02:57:41;97483.28;;;6.49;89.83
70254;BME280;57649;42.968;1.608;2023-04-02T03:00:08;97489.16;;;6.62;89.86
70254;BME280;57649;42.968;1.608;2023-04-02T03:02:38;97494.91;;;6.58;90.12
70254;BME280;57649;42.968;1.608;2023-04-02T03:05:06;97491.81;;;6.52;91.68
70254;BME280;57649;42.968;1.608;2023-04-02T03:07:33;97499.25;;;6.49;92.64
70254;BME280;57649;42.968;1.608;2023-04-02T03:18:34;97483.53;;;6.55;90.06
70254;BME280;57649;42.968;1.608;2023-04-02T03:23:54;97496.59;;;6.49;90.86
70254;BME280;57649;42.968;1.608;2023-04-02T03:26:26;97487.06;;;6.56;90.85
70254;BME280;57649;42.968;1.608;2023-04-02T03:29:05;97477.13;;;6.58;92.29
70254;BME280;57649;42.968;1.608;2023-04-02T03:31:40;97485.06;;;6.48;92.73
70254;BME280;57649;42.968;1.608;2023-04-02T03:34:40;97485.38;;;6.55;92.89
70254;BME280;57649;42.968;1.608;2023-04-02T03:39:41;97476.00;;;6.51;92.96
70254;BME280;57649;42.968;1.608;2023-04-02T03:42:21;97474.16;;;6.61;94.35
70254;BME280;57649;42.968;1.608;2023-04-02T03:44:51;97483.81;;;6.62;94.19
70254;BME280;57649;42.968;1.608;2023-04-02T03:50:02;97476.13;;;6.59;94.83
70254;BME280;57649;42.968;1.608;2023-04-02T03:52:33;97481.72;;;6.66;93.92
70254;BME280;57649;42.968;1.608;2023-04-02T03:55:02;97485.06;;;6.78;92.80
70254;BME280;57649;42.968;1.608;2023-04-02T03:57:41;97480.19;;;6.73;94.02
70254;BME280;57649;42.968;1.608;2023-04-02T04:00:20;97476.97;;;6.69;95.99
70254;BME280;57649;42.968;1.608;2023-04-02T04:02:54;97483.53;;;6.75;97.27
70254;BME280;57649;42.968;1.608;2023-04-02T04:05:34;97494.88;;;6.77;99.50
70254;BME280;57649;42.968;1.608;2023-04-02T04:08:12;97497.97;;;6.72;95.57
70254;BME280;57649;42.968;1.608;2023-04-02T04:10:40;97498.66;;;6.74;99.61
70254;BME280;57649;42.968;1.608;2023-04-02T04:13:14;97496.44;;;6.80;96.96
70254;BME280;57649;42.968;1.608;2023-04-02T04:16:02;97502.44;;;6.82;97.52
70254;BME280;57649;42.968;1.608;2023-04-02T04:19:01;97508.72;;;6.81;99.18
70254;BME280;57649;42.968;1.608;2023-04-02T04:21:29;97487.03;;;6.75;98.31
70254;BME280;57649;42.968;1.608;2023-04-02T04:23:59;97507.22;;;6.59;99.05
70254;BME280;57649;42.968;1.608;2023-04-02T04:31:50;97482.41;;;6.48;99.14
70254;BME280;57649;42.968;1.608;2023-04-02T04:36:58;97495.72;;;6.68;97.10
70254;BME280;57649;42.968;1.608;2023-04-02T04:39:49;97492.94;;;6.69;99.60
70254;BME280;57649;42.968;1.608;2023-04-02T04:42:21;97489.28;;;6.61;100.00
70254;BME280;57649;42.968;1.608;2023-04-02T04:47:32;97512.69;;;6.67;100.00
70254;BME280;57649;42.968;1.608;2023-04-02T04:50:16;97510.88;;;6.58;98.69
70254;BME280;57649;42.968;1.608;2023-04-02T04:52:43;97504.00;;;6.55;100.00
70254;BME280;57649;42.968;1.608;2023-04-02T04:55:25;97512.53;;;6.49;100.00
70254;BME280;57649;42.968;1.608;2023-04-02T04:57:54;97512.25;;;6.42;100.00
70254;BME280;57649;42.968;1.608;2023-04-02T05:03:10;97507.09;;;6.50;99.28
70254;BME280;57649;42.968;1.608;2023-04-02T05:08:26;97495.72;;;6.48;100.00
70254;BME280;57649;42.968;1.608;2023-04-02T05:11:00;97512.38;;;6.41;100.00
70254;BME280;57649;42.968;1.608;2023-04-02T05:13:37;97509.03;;;6.29;100.00
70254;BME280;57649;42.968;1.608;2023-04-02T05:16:27;97508.59;;;6.33;99.82
70254;BME280;57649;42.968;1.608;2023-04-02T05:19:00;97509.72;;;6.31;100.00
70254;BME280;57649;42.968;1.608;2023-04-02T05:21:42;97517.00;;;6.29;100.00
70254;BME280;57649;42.968;1.608;2023-04-02T05:29:55;97539.66;;;6.23;99.93
70254;BME280;57649;42.968;1.608;2023-04-02T05:32:35;97534.09;;;6.36;98.68
70254;BME280;57649;42.968;1.608;2023-04-02T05:35:05;97547.81;;;6.51;97.62
70254;BME280;57649;42.968;1.608;2023-04-02T05:37:32;97547.50;;;6.44;100.00
70254;BME280;57649;42.968;1.608;2023-04-02T05:40:09;97556.47;;;6.53;100.00
70254;BME280;57649;42.968;1.608;2023-04-02T05:42:38;97553.97;;;6.61;97.01
70254;BME280;57649;42.968;1.608;2023-04-02T05:47:47;97574.44;;;6.70;98.67
70254;BME280;57649;42.968;1.608;2023-04-02T05:50:20;97576.09;;;6.71;96.21
70254;BME280;57649;42.968;1.608;2023-04-02T05:52:55;97572.84;;;6.78;95.21
70254;BME280;57649;42.968;1.608;2023-04-02T05:55:27;97581.00;;;6.86;96.64
70254;BME280;57649;42.968;1.608;2023-04-02T05:58:01;97566.56;;;6.79;98.74
70254;BME280;57649;42.968;1.608;2023-04-02T06:03:26;97596.13;;;6.95;98.94
70254;BME280;57649;42.968;1.608;2023-04-02T06:05:58;97599.06;;;7.02;99.63
70254;BME280;57649;42.968;1.608;2023-04-02T06:08:32;97594.59;;;6.92;99.71
70254;BME280;57649;42.968;1.608;2023-04-02T06:11:06;97600.31;;;6.98;99.56
70254;BME280;57649;42.968;1.608;2023-04-02T06:13:33;97577.50;;;6.95;95.40
70254;BME280;57649;42.968;1.608;2023-04-02T06:15:59;97597.38;;;7.01;97.37
70254;BME280;57649;42.968;1.608;2023-04-02T06:18:27;97609.84;;;7.10;95.70
70254;BME280;57649;42.968;1.608;2023-04-02T06:20:54;97605.06;;;7.13;95.17
70254;BME280;57649;42.968;1.608;2023-04-02T06:23:52;97606.34;;;7.09;95.32
70254;BME280;57649;42.968;1.608;2023-04-02T06:26:39;97613.34;;;7.10;95.16
70254;BME280;57649;42.968;1.608;2023-04-02T06:31:53;97612.50;;;7.20;95.48
70254;BME280;57649;42.968;1.608;2023-04-02T06:34:22;97603.25;;;7.14;94.89
70254;BME280;57649;42.968;1.608;2023-04-02T06:36:53;97608.75;;;7.12;95.06
70254;BME280;57649;42.968;1.608;2023-04-02T06:39:22;97609.28;;;7.26;92.89
70254;BME280;57649;42.968;1.608;2023-04-02T06:42:10;97612.94;;;7.15;95.16
70254;BME280;57649;42.968;1.608;2023-04-02T06:44:38;97608.84;;;7.21;94.77
70254;BME280;57649;42.968;1.608;2023-04-02T06:50:18;97623.41;;;7.36;93.68
70254;BME280;57649;42.968;1.608;2023-04-02T06:52:53;97622.28;;;7.48;94.73
70254;BME280;57649;42.968;1.608;2023-04-02T06:57:45;97617.91;;;7.57;91.30
70254;BME280;57649;42.968;1.608;2023-04-02T07:00:37;97623.94;;;7.59;92.11
70254;BME280;57649;42.968;1.608;2023-04-02T07:03:06;97628.94;;;7.72;91.55
70254;BME280;57649;42.968;1.608;2023-04-02T07:05:32;97622.06;;;7.79;90.10
70254;BME280;57649;42.968;1.608;2023-04-02T07:07:57;97621.72;;;7.92;91.53
70254;BME280;57649;42.968;1.608;2023-04-02T07:10:23;97628.59;;;7.95;90.68
70254;BME280;57649;42.968;1.608;2023-04-02T07:12:48;97630.56;;;7.93;89.34
70254;BME280;57649;42.968;1.608;2023-04-02T07:15:15;97627.19;;;7.90;92.22
70254;BME280;57649;42.968;1.608;2023-04-02T07:17:41;97635.59;;;7.96;90.62
70254;BME280;57649;42.968;1.608;2023-04-02T07:20:34;97629.41;;;8.05;92.51
70254;BME280;57649;42.968;1.608;2023-04-02T07:23:02;97630.28;;;7.96;89.58
70254;BME280;57649;42.968;1.608;2023-04-02T07:25:27;97628.75;;;7.93;88.08
70254;BME280;57649;42.968;1.608;2023-04-02T07:27:53;97628.31;;;7.98;88.87
70254;BME280;57649;42.968;1.608;2023-04-02T07:30:19;97625.16;;;8.12;91.03
70254;BME280;57649;42.968;1.608;2023-04-02T07:32:45;97617.25;;;8.20;90.45
70254;BME280;57649;42.968;1.608;2023-04-02T07:35:10;97625.06;;;8.32;93.06
70254;BME280;57649;42.968;1.608;2023-04-02T07:37:37;97630.34;;;8.41;92.08
70254;BME280;57649;42.968;1.608;2023-04-02T07:40:10;97631.81;;;8.26;88.08
70254;BME280;57649;42.968;1.608;2023-04-02T07:42:39;97629.16;;;8.26;87.99
70254;BME280;57649;42.968;1.608;2023-04-02T07:45:05;97624.81;;;8.25;88.36
70254;BME280;57649;42.968;1.608;2023-04-02T07:47:31;97625.75;;;8.34;90.83
70254;BME280;57649;42.968;1.608;2023-04-02T07:49:56;97623.31;;;8.40;89.58
70254;BME280;57649;42.968;1.608;2023-04-02T07:52:21;97624.97;;;8.51;88.85
70254;BME280;57649;42.968;1.608;2023-04-02T07:54:47;97619.66;;;8.51;86.86
70254;BME280;57649;42.968;1.608;2023-04-02T07:57:12;97625.88;;;8.42;87.61
70254;BME280;57649;42.968;1.608;2023-04-02T07:59:38;97634.00;;;8.50;87.55
70254;BME280;57649;42.968;1.608;2023-04-02T08:02:03;97628.59;;;8.60;88.00
70254;BME280;57649;42.968;1.608;2023-04-02T08:04:29;97627.44;;;8.62;90.35
70254;BME280;57649;42.968;1.608;2023-04-02T08:06:55;97633.31;;;8.66;89.47
70254;BME280;57649;42.968;1.608;2023-04-02T08:09:20;97628.47;;;8.79;91.61
70254;BME280;57649;42.968;1.608;2023-04-02T08:11:46;97630.97;;;8.63;88.14
70254;BME280;57649;42.968;1.608;2023-04-02T08:14:11;97641.72;;;8.71;91.25
70254;BME280;57649;42.968;1.608;2023-04-02T08:16:48;97632.94;;;8.61;89.81
70254;BME280;57649;42.968;1.608;2023-04-02T08:19:17;97639.97;;;8.80;90.63
70254;BME280;57649;42.968;1.608;2023-04-02T08:21:43;97632.91;;;8.89;89.14
70254;BME280;57649;42.968;1.608;2023-04-02T08:24:08;97624.78;;;8.80;86.89
70254;BME280;57649;42.968;1.608;2023-04-02T08:26:34;97638.91;;;8.73;89.74
70254;BME280;57649;42.968;1.608;2023-04-02T08:29:00;97633.31;;;8.66;90.54
70254;BME280;57649;42.968;1.608;2023-04-02T08:31:25;97634.81;;;8.51;87.72
70254;BME280;57649;42.968;1.608;2023-04-02T08:33:51;97638.50;;;8.67;88.98
70254;BME280;57649;42.968;1.608;2023-04-02T08:36:18;97644.31;;;8.81;87.45
70254;BME280;57649;42.968;1.608;2023-04-02T08:38:48;97623.72;;;8.73;86.67
70254;BME280;57649;42.968;1.608;2023-04-02T08:41:24;97633.63;;;8.81;87.51
70254;BME280;57649;42.968;1.608;2023-04-02T08:47:05;97648.59;;;8.92;85.69
70254;BME280;57649;42.968;1.608;2023-04-02T08:49:39;97631.97;;;8.98;83.10
70254;BME280;57649;42.968;1.608;2023-04-02T08:52:19;97656.47;;;8.93;83.36
70254;BME280;57649;42.968;1.608;2023-04-02T08:54:46;97657.13;;;8.95;84.52
70254;BME280;57649;42.968;1.608;2023-04-02T08:57:26;97652.81;;;8.94;82.80
70254;BME280;57649;42.968;1.608;2023-04-02T09:00:26;97665.41;;;9.02;87.00
70254;BME280;57649;42.968;1.608;2023-04-02T09:02:55;97665.78;;;9.07;84.74
70254;BME280;57649;42.968;1.608;2023-04-02T09:05:32;97676.72;;;8.86;85.16
70254;BME280;57649;42.968;1.608;2023-04-02T09:08:02;97681.50;;;8.92;85.27
70254;BME280;57649;42.968;1.608;2023-04-02T09:10:38;97680.03;;;8.98;83.52
70254;BME280;57649;42.968;1.608;2023-04-02T09:13:15;97680.34;;;9.13;84.01
70254;BME280;57649;42.968;1.608;2023-04-02T09:15:42;97677.38;;;9.16;82.51
70254;BME280;57649;42.968;1.608;2023-04-02T09:18:16;97685.09;;;9.19;84.83
70254;BME280;57649;42.968;1.608;2023-04-02T09:20:43;97686.00;;;9.28;84.60
70254;BME280;57649;42.968;1.608;2023-04-02T09:23:27;97682.84;;;9.32;83.18
70254;BME280;57649;42.968;1.608;2023-04-02T09:25:53;97685.09;;;9.37;83.82
70254;BME280;57649;42.968;1.608;2023-04-02T09:28:18;97697.59;;;9.36;81.79
70254;BME280;57649;42.968;1.608;2023-04-02T09:30:52;97691.63;;;9.42;81.69
70254;BME280;57649;42.968;1.608;2023-04-02T09:33:39;97682.78;;;9.42;82.92
70254;BME280;57649;42.968;1.608;2023-04-02T09:36:05;97686.69;;;9.48;82.90
70254;BME280;57649;42.968;1.608;2023-04-02T09:38:55;97682.06;;;9.58;85.68
70254;BME280;57649;42.968;1.608;2023-04-02T09:41:25;97674.16;;;9.48;82.43
70254;BME280;57649;42.968;1.608;2023-04-02T09:44:10;97691.00;;;9.49;82.24
70254;BME280;57649;42.968;1.608;2023-04-02T09:46:37;97692.03;;;9.12;83.62
70254;BME280;57649;42.968;1.608;2023-04-02T09:49:13;97692.25;;;9.00;82.69
70254;BME280;57649;42.968;1.608;2023-04-02T09:51:40;97697.69;;;9.09;87.19
70254;BME280;57649;42.968;1.608;2023-04-02T09:54:10;97712.44;;;8.85;88.28
70254;BME280;57649;42.968;1.608;2023-04-02T09:56:39;97702.34;;;8.61;91.15
70254;BME280;57649;42.968;1.608;2023-04-02T09:59:18;97704.47;;;8.47;94.47
70254;BME280;57649;42.968;1.608;2023-04-02T10:01:56;97716.31;;;8.45;93.34
70254;BME280;57649;42.968;1.608;2023-04-02T10:04:45;97715.47;;;8.72;94.96
70254;BME280;57649;42.968;1.608;2023-04-02T10:07:41;97717.78;;;8.85;94.84
70254;BME280;57649;42.968;1.608;2023-04-02T10:12:58;97728.63;;;8.83;93.61
70254;BME280;57649;42.968;1.608;2023-04-02T10:20:46;97722.81;;;8.88;96.34
70254;BME280;57649;42.968;1.608;2023-04-02T10:23:15;97735.47;;;8.58;94.17
70254;BME280;57649;42.968;1.608;2023-04-02T10:26:33;97731.72;;;8.51;95.27
70254;BME280;57649;42.968;1.608;2023-04-02T10:31:39;97733.16;;;8.36;95.49
70254;BME280;57649;42.968;1.608;2023-04-02T10:34:13;97723.63;;;8.43;98.05
70254;BME280;57649;42.968;1.608;2023-04-02T10:44:29;97728.50;;;8.38;94.40
70254;BME280;57649;42.968;1.608;2023-04-02T10:49:58;97734.50;;;8.12;99.96
70254;BME280;57649;42.968;1.608;2023-04-02T10:52:42;97720.69;;;8.17;100.00
70254;BME280;57649;42.968;1.608;2023-04-02T10:55:24;97726.22;;;8.15;99.93
70254;BME280;57649;42.968;1.608;2023-04-02T10:57:53;97727.28;;;8.22;100.00
70254;BME280;57649;42.968;1.608;2023-04-02T11:00:26;97726.63;;;8.10;100.00
70254;BME280;57649;42.968;1.608;2023-04-02T11:03:04;97724.50;;;8.14;100.00
70254;BME280;57649;42.968;1.608;2023-04-02T11:05:48;97730.66;;;8.24;100.00
70254;BME280;57649;42.968;1.608;2023-04-02T11:10:49;97725.75;;;8.20;100.00
70254;BME280;57649;42.968;1.608;2023-04-02T11:13:41;97732.34;;;8.25;100.00
70254;BME280;57649;42.968;1.608;2023-04-02T11:16:11;97728.50;;;8.38;100.00
70254;BME280;57649;42.968;1.608;2023-04-02T11:18:39;97734.00;;;8.36;100.00
70254;BME280;57649;42.968;1.608;2023-04-02T11:21:15;97733.00;;;8.47;100.00
70254;BME280;57649;42.968;1.608;2023-04-02T11:23:59;97742.88;;;8.64;100.00
70254;BME280;57649;42.968;1.608;2023-04-02T11:29:16;97738.81;;;8.23;100.00
70254;BME280;57649;42.968;1.608;2023-04-02T11:31:44;97741.56;;;8.31;97.96
70254;BME280;57649;42.968;1.608;2023-04-02T11:37:28;97753.50;;;8.46;100.00
70254;BME280;57649;42.968;1.608;2023-04-02T11:39:56;97770.78;;;8.33;100.00
70254;BME280;57649;42.968;1.608;2023-04-02T11:44:51;97749.03;;;7.61;96.66
70254;BME280;57649;42.968;1.608;2023-04-02T11:47:22;97755.88;;;7.63;100.00
70254;BME280;57649;42.968;1.608;2023-04-02T11:55:29;97770.56;;;8.06;100.00
70254;BME280;57649;42.968;1.608;2023-04-02T12:03:52;97768.66;;;8.46;100.00
70254;BME280;57649;42.968;1.608;2023-04-02T12:09:24;97772.91;;;9.04;100.00
70254;BME280;57649;42.968;1.608;2023-04-02T12:11:53;97767.88;;;9.19;97.16
70254;BME280;57649;42.968;1.608;2023-04-02T12:16:57;97770.88;;;9.34;100.00
70254;BME280;57649;42.968;1.608;2023-04-02T12:19:24;97792.03;;;9.27;100.00
70254;BME280;57649;42.968;1.608;2023-04-02T12:21:51;97788.16;;;9.12;100.00
70254;BME280;57649;42.968;1.608;2023-04-02T12:24:20;97791.94;;;8.91;100.00
70254;BME280;57649;42.968;1.608;2023-04-02T12:26:46;97791.09;;;8.91;100.00
70254;BME280;57649;42.968;1.608;2023-04-02T12:31:53;97794.03;;;8.60;100.00
70254;BME280;57649;42.968;1.608;2023-04-02T12:34:21;97808.91;;;8.72;100.00
70254;BME280;57649;42.968;1.608;2023-04-02T12:36:51;97810.81;;;8.80;100.00
70254;BME280;57649;42.968;1.608;2023-04-02T12:39:17;97807.25;;;8.61;100.00
70254;BME280;57649;42.968;1.608;2023-04-02T12:41:43;97801.56;;;8.74;100.00
70254;BME280;57649;42.968;1.608;2023-04-02T12:44:22;97798.16;;;8.82;100.00
70254;BME280;57649;42.968;1.608;2023-04-02T12:46:48;97783.19;;;8.99;100.00
70254;BME280;57649;42.968;1.608;2023-04-02T12:49:40;97792.31;;;9.24;100.00
70254;BME280;57649;42.968;1.608;2023-04-02T12:52:15;97775.78;;;9.38;98.36
70254;BME280;57649;42.968;1.608;2023-04-02T12:54:48;97780.38;;;9.82;100.00
70254;BME280;57649;42.968;1.608;2023-04-02T12:59:49;97756.22;;;9.74;96.91
70254;BME280;57649;42.968;1.608;2023-04-02T13:04:55;97745.53;;;9.74;93.87
70254;BME280;57649;42.968;1.608;2023-04-02T13:07:23;97744.16;;;9.70;92.53
70254;BME280;57649;42.968;1.608;2023-04-02T13:10:04;97739.06;;;9.76;94.46
70254;BME280;57649;42.968;1.608;2023-04-02T13:12:36;97730.25;;;9.66;91.74
70254;BME280;57649;42.968;1.608;2023-04-02T13:15:07;97750.19;;;9.72;96.00
70254;BME280;57649;42.968;1.608;2023-04-02T13:17:36;97741.06;;;9.56;95.49
70254;BME280;57649;42.968;1.608;2023-04-02T13:20:28;97756.31;;;9.64;98.26
70254;BME280;57649;42.968;1.608;2023-04-02T13:22:54;97760.28;;;9.42;98.11
70254;BME280;57649;42.968;1.608;2023-04-02T13:25:26;97761.63;;;9.28;99.55
70254;BME280;57649;42.968;1.608;2023-04-02T13:27:52;97795.56;;;9.00;98.87
70254;BME280;57649;42.968;1.608;2023-04-02T13:30:22;97784.28;;;8.78;100.00
70254;BME280;57649;42.968;1.608;2023-04-02T13:32:48;97788.97;;;8.57;100.00
70254;BME280;57649;42.968;1.608;2023-04-02T13:35:14;97790.00;;;8.36;96.05
70254;BME280;57649;42.968;1.608;2023-04-02T13:37:39;97792.72;;;8.26;98.05
70254;BME280;57649;42.968;1.608;2023-04-02T13:40:06;97785.38;;;8.38;98.77
70254;BME280;57649;42.968;1.608;2023-04-02T13:42:32;97784.38;;;8.39;99.39
70254;BME280;57649;42.968;1.608;2023-04-02T13:44:57;97772.84;;;8.58;100.00
70254;BME280;57649;42.968;1.608;2023-04-02T13:47:23;97770.66;;;8.72;100.00
70254;BME280;57649;42.968;1.608;2023-04-02T13:49:48;97779.88;;;8.87;100.00
70254;BME280;57649;42.968;1.608;2023-04-02T13:52:14;97764.84;;;8.86;100.00
70254;BME280;57649;42.968;1.608;2023-04-02T13:54:47;97765.63;;;8.96;100.00
70254;BME280;57649;42.968;1.608;2023-04-02T13:57:15;97758.38;;;9.06;98.46
70254;BME280;57649;42.968;1.608;2023-04-02T13:59:40;97766.59;;;9.05;100.00
70254;BME280;57649;42.968;1.608;2023-04-02T14:02:13;97766.03;;;9.01;94.90
70254;BME280;57649;42.968;1.608;2023-04-02T14:04:47;97774.47;;;8.97;94.13
70254;BME280;57649;42.968;1.608;2023-04-02T14:07:24;97766.94;;;8.92;92.16
70254;BME280;57649;42.968;1.608;2023-04-02T14:18:52;97758.31;;;9.80;89.28
70254;BME280;57649;42.968;1.608;2023-04-02T14:24:52;97757.81;;;9.85;88.22
70254;BME280;57649;42.968;1.608;2023-04-02T14:27:26;97768.41;;;9.94;86.78
70254;BME280;57649;42.968;1.608;2023-04-02T14:30:03;97773.03;;;9.84;86.45
70254;BME280;57649;42.968;1.608;2023-04-02T14:33:01;97771.41;;;10.09;85.64
70254;BME280;57649;42.968;1.608;2023-04-02T14:35:33;97787.22;;;10.29;81.40
70254;BME280;57649;42.968;1.608;2023-04-02T14:38:20;97775.63;;;10.20;79.96
70254;BME280;57649;42.968;1.608;2023-04-02T14:43:30;97762.47;;;10.79;78.25
70254;BME280;57649;42.968;1.608;2023-04-02T14:46:07;97767.31;;;10.75;78.72
70254;BME280;57649;42.968;1.608;2023-04-02T14:48:50;97756.31;;;10.52;79.51
70254;BME280;57649;42.968;1.608;2023-04-02T14:51:37;97754.94;;;10.48;78.44
70254;BME280;57649;42.968;1.608;2023-04-02T14:56:54;97751.78;;;10.53;82.42
70254;BME280;57649;42.968;1.608;2023-04-02T14:59:38;97751.22;;;10.41;81.57
70254;BME280;57649;42.968;1.608;2023-04-02T15:02:21;97766.78;;;10.46;81.47
70254;BME280;57649;42.968;1.608;2023-04-02T15:05:01;97763.78;;;10.40;79.59
70254;BME280;57649;42.968;1.608;2023-04-02T15:07:37;97760.59;;;10.45;82.28
70254;BME280;57649;42.968;1.608;2023-04-02T15:12:56;97744.56;;;10.88;79.85
70254;BME280;57649;42.968;1.608;2023-04-02T15:15:45;97743.03;;;10.77;82.92
70254;BME280;57649;42.968;1.608;2023-04-02T15:18:16;97727.59;;;10.71;83.78
70254;BME280;57649;42.968;1.608;2023-04-02T15:23:35;97718.44;;;10.47;76.62
70254;BME280;57649;42.968;1.608;2023-04-02T15:26:19;97721.72;;;10.59;76.08
70254;BME280;57649;42.968;1.608;2023-04-02T15:31:41;97722.59;;;10.42;78.44
70254;BME280;57649;42.968;1.608;2023-04-02T15:34:16;97714.81;;;10.30;76.71
70254;BME280;57649;42.968;1.608;2023-04-02T15:36:54;97715.91;;;10.37;78.57
70254;BME280;57649;42.968;1.608;2023-04-02T15:39:47;97714.31;;;10.27;76.14
70254;BME280;57649;42.968;1.608;2023-04-02T15:42:18;97715.47;;;10.24;78.01
70254;BME280;57649;42.968;1.608;2023-04-02T15:45:00;97736.88;;;10.24;81.17
70254;BME280;57649;42.968;1.608;2023-04-02T15:50:41;97767.59;;;9.94;85.15
70254;BME280;57649;42.968;1.608;2023-04-02T16:10:20;97783.41;;;8.50;96.81
70254;BME280;57649;42.968;1.608;2023-04-02T16:12:20;97779.88;;;8.40;100.00
70254;BME280;57649;42.968;1.608;2023-04-02T16:14:47;97788.72;;;8.40;100.00
70254;BME280;57649;42.968;1.608;2023-04-02T16:17:25;97785.41;;;8.28;100.00
70254;BME280;57649;42.968;1.608;2023-04-02T16:19:59;97785.69;;;8.35;100.00
70254;BME280;57649;42.968;1.608;2023-04-02T16:22:29;97794.94;;;8.41;100.00
70254;BME280;57649;42.968;1.608;2023-04-02T16:25:13;97784.53;;;8.38;100.00
70254;BME280;57649;42.968;1.608;2023-04-02T16:27:56;97784.66;;;8.46;100.00
70254;BME280;57649;42.968;1.608;2023-04-02T16:30:48;97783.97;;;8.54;100.00
70254;BME280;57649;42.968;1.608;2023-04-02T16:38:57;97786.50;;;8.45;97.94
70254;BME280;57649;42.968;1.608;2023-04-02T16:42:13;97784.25;;;8.51;96.54
70254;BME280;57649;42.968;1.608;2023-04-02T16:49:54;97788.66;;;8.70;95.96
70254;BME280;57649;42.968;1.608;2023-04-02T17:08:42;97798.22;;;8.72;88.82
70254;BME280;57649;42.968;1.608;2023-04-02T17:14:41;97808.19;;;8.70;87.79
70254;BME280;57649;42.968;1.608;2023-04-02T17:17:08;97804.66;;;8.70;88.98
70254;BME280;57649;42.968;1.608;2023-04-02T17:19:38;97831.19;;;8.81;89.62
70254;BME280;57649;42.968;1.608;2023-04-02T17:22:04;97815.50;;;8.68;90.34
70254;BME280;57649;42.968;1.608;2023-04-02T17:24:53;97818.72;;;8.72;90.49
70254;BME280;57649;42.968;1.608;2023-04-02T17:27:36;97825.75;;;8.73;92.22
70254;BME280;57649;42.968;1.608;2023-04-02T17:30:14;97826.63;;;8.63;90.65
70254;BME280;57649;42.968;1.608;2023-04-02T17:32:41;97835.22;;;8.47;92.47
70254;BME280;57649;42.968;1.608;2023-04-02T17:38:39;97843.09;;;8.39;91.77
70254;BME280;57649;42.968;1.608;2023-04-02T17:47:20;97841.97;;;8.42;97.66
70254;BME280;57649;42.968;1.608;2023-04-02T18:16:47;97881.28;;;8.40;97.56
70254;BME280;57649;42.968;1.608;2023-04-02T18:19:22;97891.50;;;8.35;100.00
70254;BME280;57649;42.968;1.608;2023-04-02T18:22:10;97888.44;;;8.29;100.00